createdAt,value
2018-05-13T00:01:37.512Z,92.43
2018-05-13T00:04:06.613Z,91.82
2018-05-13T00:06:35.692Z,91.20
2018-05-13T00:09:04.846Z,91.69
2018-05-13T00:11:33.899Z,90.93
2018-05-13T00:14:02.952Z,90.94
2018-05-13T00:16:32.304Z,90.64
2018-05-13T00:19:01.452Z,90.71
2018-05-13T00:21:30.647Z,91.55
2018-05-13T00:23:59.768Z,92.27
2018-05-13T00:26:28.966Z,93.01
2018-05-13T00:28:57.931Z,91.88
2018-05-13T00:31:26.932Z,91.92
2018-05-13T00:33:56.211Z,91.24
2018-05-13T00:36:25.164Z,91.01
2018-05-13T00:38:54.429Z,90.96
2018-05-13T00:41:23.648Z,90.93
2018-05-13T00:43:52.822Z,91.57
2018-05-13T00:46:22.109Z,91.74
2018-05-13T00:48:51.216Z,91.33
2018-05-13T00:51:20.454Z,90.84
2018-05-13T00:53:49.477Z,90.70
2018-05-13T00:56:18.456Z,89.73
2018-05-13T00:58:47.660Z,89.89
2018-05-13T01:01:16.615Z,89.51
2018-05-13T01:03:45.670Z,88.37
2018-05-13T01:06:15.065Z,87.69
2018-05-13T01:08:44.375Z,87.39
2018-05-13T01:11:16.133Z,87.51
2018-05-13T01:13:45.290Z,87.69
2018-05-13T01:16:14.698Z,87.71
2018-05-13T01:18:43.898Z,87.43
2018-05-13T01:21:13.177Z,87.35
2018-05-13T01:23:45.553Z,87.64
2018-05-13T01:26:15.016Z,88.19
2018-05-13T01:28:44.124Z,88.57
2018-05-13T01:31:13.196Z,88.31
2018-05-13T01:33:42.605Z,87.80
2018-05-13T01:36:12.009Z,87.89
2018-05-13T01:38:41.102Z,87.99
2018-05-13T01:41:10.253Z,88.31
2018-05-13T01:43:39.337Z,87.95
2018-05-13T01:46:08.412Z,87.64
2018-05-13T01:48:37.199Z,87.73
2018-05-13T01:51:06.400Z,87.54
2018-05-13T01:53:35.683Z,87.10
2018-05-13T01:56:04.805Z,86.36
2018-05-13T01:58:34.636Z,86.36
2018-05-13T02:01:03.947Z,86.37
2018-05-13T02:03:33.338Z,86.07
2018-05-13T02:06:02.580Z,85.80
2018-05-13T02:08:31.780Z,85.54
2018-05-13T02:11:00.908Z,85.10
2018-05-13T02:13:30.064Z,84.03
2018-05-13T02:15:59.040Z,84.76
2018-05-13T02:18:28.100Z,84.64
2018-05-13T02:20:57.296Z,85.12
2018-05-13T02:23:26.464Z,85.83
2018-05-13T02:25:55.779Z,86.60
2018-05-13T02:28:25.145Z,86.67
2018-05-13T02:30:54.424Z,87.59
2018-05-13T02:33:23.517Z,88.19
2018-05-13T02:35:52.917Z,88.10
2018-05-13T02:38:22.026Z,86.94
2018-05-13T02:40:51.220Z,85.79
2018-05-13T02:43:20.614Z,86.48
2018-05-13T02:45:49.633Z,87.26
2018-05-13T02:48:19.070Z,86.09
2018-05-13T02:50:48.058Z,84.87
2018-05-13T02:53:17.572Z,86.24
2018-05-13T02:55:46.727Z,87.12
2018-05-13T02:58:15.775Z,87.57
2018-05-13T03:00:45.007Z,87.52
2018-05-13T03:03:14.267Z,86.82
2018-05-13T03:05:43.476Z,87.14
2018-05-13T03:08:12.642Z,87.33
2018-05-13T03:10:41.837Z,87.63
2018-05-13T03:13:10.804Z,87.20
2018-05-13T03:15:40.237Z,86.45
2018-05-13T03:18:10.068Z,85.98
2018-05-13T03:20:39.116Z,85.62
2018-05-13T03:23:09.017Z,85.12
2018-05-13T03:25:38.150Z,84.83
2018-05-13T03:28:07.287Z,83.12
2018-05-13T03:30:36.539Z,82.43
2018-05-13T03:33:05.705Z,82.53
2018-05-13T03:35:34.941Z,82.68
2018-05-13T03:38:03.933Z,83.11
2018-05-13T03:40:33.104Z,83.48
2018-05-13T03:43:02.172Z,83.94
2018-05-13T03:45:31.516Z,84.66
2018-05-13T03:48:00.700Z,84.98
2018-05-13T03:50:29.936Z,84.41
2018-05-13T03:52:59.262Z,85.83
2018-05-13T03:55:28.284Z,86.96
2018-05-13T03:57:57.359Z,86.56
2018-05-13T04:00:26.720Z,87.49
2018-05-13T04:02:56.031Z,87.79
2018-05-13T04:05:25.117Z,87.88
2018-05-13T04:11:13.684Z,87.25
2018-05-13T04:13:54.385Z,87.23
2018-05-13T04:16:23.499Z,86.29
2018-05-13T04:18:52.480Z,86.98
2018-05-13T04:21:21.898Z,87.11
2018-05-13T04:23:51.024Z,88.12
2018-05-13T04:26:20.424Z,88.39
2018-05-13T04:28:49.664Z,87.99
2018-05-13T04:31:18.795Z,86.32
2018-05-13T04:33:48.054Z,83.75
2018-05-13T04:36:17.201Z,80.61
2018-05-13T04:38:46.432Z,80.14
2018-05-13T04:41:15.924Z,79.43
2018-05-13T04:43:45.096Z,79.42
2018-05-13T04:46:14.264Z,78.97
2018-05-13T04:48:43.677Z,78.37
2018-05-13T04:51:12.895Z,77.40
2018-05-13T04:53:42.736Z,77.86
2018-05-13T04:56:12.091Z,77.94
2018-05-13T04:58:41.307Z,77.33
2018-05-13T05:01:10.734Z,76.80
2018-05-13T05:03:39.712Z,76.79
2018-05-13T05:06:08.888Z,76.66
2018-05-13T05:08:38.229Z,75.69
2018-05-13T05:11:07.370Z,76.48
2018-05-13T05:13:36.541Z,74.71
2018-05-13T05:16:05.603Z,73.60
2018-05-13T05:18:34.889Z,73.57
2018-05-13T05:21:04.199Z,74.03
2018-05-13T05:23:33.573Z,74.64
2018-05-13T05:26:02.687Z,74.80
2018-05-13T05:28:32.122Z,74.05
2018-05-13T05:31:01.326Z,72.76
2018-05-13T05:33:30.968Z,72.35
2018-05-13T05:36:00.275Z,71.60
2018-05-13T05:38:29.372Z,71.26
2018-05-13T05:40:58.683Z,69.93
2018-05-13T05:43:28.173Z,70.13
2018-05-13T05:45:57.395Z,68.47
2018-05-13T05:48:26.582Z,69.78
2018-05-13T05:50:55.688Z,68.45
2018-05-13T05:53:24.865Z,69.25
2018-05-13T05:55:53.982Z,69.57
2018-05-13T05:58:23.130Z,69.42
2018-05-13T06:00:52.373Z,69.68
2018-05-13T06:03:21.554Z,67.80
2018-05-13T06:05:50.748Z,67.99
2018-05-13T06:08:20.261Z,67.28
2018-05-13T06:10:49.334Z,67.22
2018-05-13T06:13:18.483Z,67.07
2018-05-13T06:15:47.777Z,66.31
2018-05-13T06:18:17.076Z,66.42
2018-05-13T06:20:46.197Z,66.95
2018-05-13T06:23:15.694Z,66.58
2018-05-13T06:25:44.620Z,66.50
2018-05-13T06:28:13.568Z,65.35
2018-05-13T06:30:42.848Z,65.87
2018-05-13T06:33:11.926Z,65.87
2018-05-13T06:35:41.011Z,64.85
2018-05-13T06:38:10.242Z,65.36
2018-05-13T06:40:39.872Z,64.99
2018-05-13T06:43:09.009Z,64.69
2018-05-13T06:45:38.236Z,64.99
2018-05-13T06:48:08.085Z,63.52
2018-05-13T06:50:37.249Z,63.38
2018-05-13T06:53:06.418Z,63.41
2018-05-13T06:55:35.441Z,63.05
2018-05-13T06:58:04.658Z,63.26
2018-05-13T07:00:33.703Z,63.69
2018-05-13T07:03:02.850Z,61.20
2018-05-13T07:05:32.041Z,62.71
2018-05-13T07:08:01.344Z,63.26
2018-05-13T07:10:30.617Z,61.93
2018-05-13T07:12:59.689Z,60.25
2018-05-13T07:15:28.974Z,60.19
2018-05-13T07:17:58.538Z,60.53
2018-05-13T07:20:28.478Z,60.81
2018-05-13T07:22:57.485Z,60.42
2018-05-13T07:25:26.426Z,60.99
2018-05-13T07:27:55.818Z,61.07
2018-05-13T07:30:24.868Z,60.20
2018-05-13T07:32:54.008Z,59.70
2018-05-13T07:35:23.469Z,58.24
2018-05-13T07:37:52.570Z,58.30
2018-05-13T07:40:21.554Z,57.76
2018-05-13T07:42:50.640Z,58.07
2018-05-13T07:45:19.815Z,57.97
2018-05-13T07:47:49.072Z,57.35
2018-05-13T07:50:18.462Z,57.59
2018-05-13T07:52:47.472Z,57.73
2018-05-13T07:55:16.768Z,56.47
2018-05-13T07:57:45.800Z,55.55
2018-05-13T08:00:15.004Z,55.14
2018-05-13T08:02:44.450Z,54.79
2018-05-13T08:05:13.712Z,53.92
2018-05-13T08:07:42.695Z,54.03
2018-05-13T08:10:11.864Z,53.63
2018-05-13T08:12:41.024Z,53.79
2018-05-13T08:15:10.040Z,52.49
2018-05-13T08:17:39.377Z,52.22
2018-05-13T08:20:08.555Z,53.05
2018-05-13T08:22:37.545Z,53.00
2018-05-13T08:25:06.765Z,49.30
2018-05-13T08:27:36.034Z,48.28
2018-05-13T08:30:04.984Z,46.45
2018-05-13T08:32:34.145Z,44.91
2018-05-13T08:35:03.733Z,40.38
2018-05-13T08:37:32.891Z,41.55
2018-05-13T08:40:02.154Z,39.27
2018-05-13T08:42:31.604Z,36.87
2018-05-13T08:45:00.712Z,37.45
2018-05-13T08:47:29.742Z,37.23
2018-05-13T08:49:59.044Z,36.72
2018-05-13T08:52:28.156Z,35.48
2018-05-13T08:54:57.135Z,37.42
2018-05-13T08:57:26.109Z,35.05
2018-05-13T08:59:55.157Z,34.42
2018-05-13T09:02:24.609Z,33.20
2018-05-13T09:04:53.676Z,33.48
2018-05-13T09:07:22.696Z,33.44
2018-05-13T09:09:51.856Z,34.49
2018-05-13T09:12:20.816Z,33.60
2018-05-13T09:14:49.800Z,31.41
2018-05-13T09:17:18.872Z,32.79
2018-05-13T09:19:47.879Z,34.70
2018-05-13T09:22:16.988Z,36.66
2018-05-13T09:24:45.984Z,35.93
2018-05-13T09:27:15.060Z,35.14
2018-05-13T09:29:44.239Z,34.97
2018-05-13T09:32:13.448Z,34.88
2018-05-13T09:34:42.392Z,33.27
2018-05-13T09:37:11.542Z,31.89
2018-05-13T09:39:40.661Z,32.75
2018-05-13T09:42:09.680Z,33.14
2018-05-13T09:44:38.928Z,33.56
2018-05-13T09:47:08.314Z,34.31
2018-05-13T09:49:37.431Z,34.27
2018-05-13T09:52:06.630Z,33.69
2018-05-13T09:54:35.814Z,34.14
2018-05-13T09:57:04.936Z,33.58
2018-05-13T09:59:34.052Z,34.45
2018-05-13T10:02:03.291Z,33.17
2018-05-13T10:04:32.552Z,32.67
2018-05-13T10:07:01.496Z,32.05
2018-05-13T10:09:31.017Z,31.92
2018-05-13T10:12:00.278Z,31.66
2018-05-13T10:14:29.515Z,32.62
2018-05-13T10:16:58.760Z,32.26
2018-05-13T10:19:27.952Z,32.47
2018-05-13T10:21:56.940Z,33.03
2018-05-13T10:24:25.988Z,32.47
2018-05-13T10:26:55.091Z,33.30
2018-05-13T10:29:24.244Z,31.92
2018-05-13T10:31:53.509Z,32.18
2018-05-13T10:34:22.606Z,31.72
2018-05-13T10:36:51.790Z,31.37
2018-05-13T10:39:20.878Z,31.06
2018-05-13T10:41:50.858Z,29.66
2018-05-13T10:44:21.050Z,30.40
2018-05-13T10:46:50.155Z,30.88
2018-05-13T10:49:19.279Z,31.52
2018-05-13T10:51:48.450Z,30.14
2018-05-13T10:54:17.672Z,29.71
2018-05-13T10:56:46.875Z,29.58
2018-05-13T10:59:16.224Z,30.10
2018-05-13T11:01:45.241Z,28.91
2018-05-13T11:04:14.696Z,28.57
2018-05-13T11:06:44.339Z,29.92
2018-05-13T11:09:13.774Z,30.17
2018-05-13T11:11:43.274Z,28.34
2018-05-13T11:14:12.252Z,33.41
2018-05-13T11:16:41.304Z,35.73
2018-05-13T11:19:10.621Z,35.32
2018-05-13T11:21:39.711Z,34.85
2018-05-13T11:24:08.785Z,33.06
2018-05-13T11:26:37.986Z,32.74
2018-05-13T11:29:07.184Z,34.23
2018-05-13T11:31:36.697Z,34.38
2018-05-13T11:34:05.898Z,34.25
2018-05-13T11:36:35.195Z,32.54
2018-05-13T11:39:05.102Z,32.42
2018-05-13T11:41:34.215Z,34.65
2018-05-13T11:44:03.565Z,33.96
2018-05-13T11:46:32.652Z,33.77
2018-05-13T11:49:01.802Z,35.44
2018-05-13T11:51:31.842Z,33.07
2018-05-13T11:54:01.247Z,34.42
2018-05-13T11:56:30.438Z,37.40
2018-05-13T11:58:59.801Z,34.85
2018-05-13T12:01:29.437Z,35.32
2018-05-13T12:03:58.557Z,35.93
2018-05-13T12:06:27.740Z,35.06
2018-05-13T12:08:56.948Z,33.44
2018-05-13T12:11:26.333Z,34.07
2018-05-13T12:13:55.739Z,33.90
2018-05-13T12:16:24.768Z,36.42
2018-05-13T12:18:54.013Z,37.16
2018-05-13T12:21:23.068Z,34.96
2018-05-13T12:23:52.335Z,33.34
2018-05-13T12:26:21.592Z,33.47
2018-05-13T12:28:50.879Z,33.21
2018-05-13T12:31:20.114Z,34.75
2018-05-13T12:33:49.429Z,33.58
2018-05-13T12:36:18.564Z,33.10
2018-05-13T12:38:47.983Z,34.62
2018-05-13T12:41:17.270Z,36.05
2018-05-13T12:43:46.552Z,36.58
2018-05-13T12:46:15.753Z,37.14
2018-05-13T12:48:44.771Z,38.47
2018-05-13T12:51:14.455Z,37.39
2018-05-13T12:53:44.184Z,38.32
2018-05-13T12:56:13.303Z,38.94
2018-05-13T12:58:42.684Z,39.44
2018-05-13T13:01:12.075Z,40.88
2018-05-13T13:03:41.105Z,40.55
2018-05-13T13:06:10.206Z,39.29
2018-05-13T13:08:39.308Z,40.82
2018-05-13T13:11:08.697Z,40.31
2018-05-13T13:13:38.007Z,40.56
2018-05-13T13:16:07.381Z,39.67
2018-05-13T13:18:36.649Z,39.16
2018-05-13T13:21:06.027Z,39.43
2018-05-13T13:23:35.234Z,38.88
2018-05-13T13:26:04.501Z,35.70
2018-05-13T13:28:33.606Z,35.94
2018-05-13T13:31:02.664Z,32.74
2018-05-13T13:33:31.747Z,32.93
2018-05-13T13:36:00.867Z,32.30
2018-05-13T13:38:30.084Z,30.60
2018-05-13T13:40:59.567Z,30.18
2018-05-13T13:43:29.071Z,32.86
2018-05-13T13:45:58.067Z,32.27
2018-05-13T13:48:27.052Z,31.88
2018-05-13T13:50:55.998Z,30.61
2018-05-13T13:53:25.281Z,31.98
2018-05-13T13:55:54.195Z,31.35
2018-05-13T13:58:23.304Z,30.62
2018-05-13T14:00:52.308Z,32.39
2018-05-13T14:03:21.392Z,31.86
2018-05-13T14:05:50.405Z,31.27
2018-05-13T14:08:19.555Z,29.16
2018-05-13T14:10:48.662Z,31.44
2018-05-13T14:13:17.954Z,31.59
2018-05-13T14:15:47.105Z,30.43
2018-05-13T14:18:16.264Z,31.21
2018-05-13T14:20:45.460Z,32.20
2018-05-13T14:23:14.736Z,31.18
2018-05-13T14:25:43.900Z,31.44
2018-05-13T14:28:13.219Z,29.19
2018-05-13T14:30:42.404Z,29.26
2018-05-13T14:33:11.445Z,29.58
2018-05-13T14:35:40.592Z,28.33
2018-05-13T14:38:09.830Z,29.93
2018-05-13T14:40:39.104Z,27.97
2018-05-13T14:43:08.521Z,27.53
2018-05-13T14:45:37.631Z,26.92
2018-05-13T14:48:06.964Z,26.79
2018-05-13T14:50:36.139Z,26.71
2018-05-13T14:53:05.216Z,29.90
2018-05-13T14:55:34.545Z,27.49
2018-05-13T14:58:03.784Z,26.72
2018-05-13T15:00:32.840Z,26.93
2018-05-13T15:03:02.169Z,27.11
2018-05-13T15:05:31.802Z,28.23
2018-05-13T15:08:00.943Z,28.78
2018-05-13T15:10:30.205Z,27.31
2018-05-13T15:12:59.412Z,27.63
2018-05-13T15:15:28.548Z,29.05
2018-05-13T15:17:58.093Z,28.45
2018-05-13T15:20:27.216Z,28.43
2018-05-13T15:22:56.376Z,29.73
2018-05-13T15:25:25.600Z,30.29
2018-05-13T15:27:55.000Z,29.55
2018-05-13T15:30:24.074Z,27.84
2018-05-13T15:32:53.291Z,28.62
2018-05-13T15:35:22.615Z,28.49
2018-05-13T15:37:51.731Z,30.24
2018-05-13T15:40:20.866Z,28.85
2018-05-13T15:42:50.042Z,27.83
2018-05-13T15:45:19.298Z,28.07
2018-05-13T15:47:48.585Z,28.74
2018-05-13T15:50:17.688Z,28.83
2018-05-13T15:52:46.737Z,28.26
2018-05-13T15:55:15.811Z,27.12
2018-05-13T15:57:45.071Z,28.87
2018-05-13T16:00:14.280Z,28.34
2018-05-13T16:02:43.448Z,27.01
2018-05-13T16:05:12.845Z,27.52
2018-05-13T16:07:42.026Z,27.66
2018-05-13T16:10:11.636Z,26.31
2018-05-13T16:12:40.849Z,27.38
2018-05-13T16:15:09.926Z,28.31
2018-05-13T16:17:39.326Z,27.49
2018-05-13T16:20:08.544Z,27.52
2018-05-13T16:22:37.926Z,26.54
2018-05-13T16:25:07.084Z,27.97
2018-05-13T16:27:36.289Z,29.48
2018-05-13T16:30:05.758Z,29.02
2018-05-13T16:32:35.032Z,28.47
2018-05-13T16:35:04.576Z,28.76
2018-05-13T16:37:34.236Z,30.21
2018-05-13T16:40:03.958Z,28.05
2018-05-13T16:42:33.934Z,29.40
2018-05-13T16:45:03.412Z,29.41
2018-05-13T16:47:32.680Z,28.91
2018-05-13T16:50:01.843Z,29.06
2018-05-13T16:52:31.015Z,30.24
2018-05-13T16:55:00.324Z,30.31
2018-05-13T16:57:29.489Z,31.20
2018-05-13T16:59:58.376Z,34.14
2018-05-13T17:02:27.301Z,36.11
2018-05-13T17:04:56.124Z,37.43
2018-05-13T17:07:25.020Z,38.41
2018-05-13T17:09:53.716Z,38.06
2018-05-13T17:12:22.646Z,38.59
2018-05-13T17:14:51.564Z,40.00
2018-05-13T17:17:20.293Z,40.44
2018-05-13T17:19:50.215Z,40.43
2018-05-13T17:22:18.921Z,41.48
2018-05-13T17:24:47.620Z,42.71
2018-05-13T17:27:16.304Z,43.23
2018-05-13T17:29:45.305Z,43.88
2018-05-13T17:32:14.180Z,43.87
2018-05-13T17:34:43.072Z,44.11
2018-05-13T17:37:12.164Z,44.57
2018-05-13T17:39:41.274Z,44.87
2018-05-13T17:42:10.166Z,45.37
2018-05-13T17:44:39.232Z,45.28
2018-05-13T17:47:08.554Z,46.18
2018-05-13T17:49:37.640Z,46.64
2018-05-13T17:52:06.774Z,46.62
2018-05-13T17:54:35.652Z,46.39
2018-05-13T17:57:04.751Z,46.50
2018-05-13T17:59:33.661Z,46.30
2018-05-13T18:02:02.868Z,46.79
2018-05-13T18:04:32.004Z,46.71
2018-05-13T18:07:01.029Z,46.82
2018-05-13T18:09:30.188Z,46.79
2018-05-13T18:11:59.104Z,47.05
2018-05-13T18:14:27.925Z,47.54
2018-05-13T18:16:56.748Z,47.30
2018-05-13T18:19:25.848Z,47.95
2018-05-13T18:21:54.877Z,48.83
2018-05-13T18:24:24.025Z,49.24
2018-05-13T18:26:53.132Z,49.58
2018-05-13T18:29:22.072Z,48.95
2018-05-13T18:31:51.123Z,47.78
2018-05-13T18:34:19.931Z,49.04
2018-05-13T18:36:49.053Z,47.99
2018-05-13T18:39:18.074Z,47.47
2018-05-13T18:41:47.174Z,46.16
2018-05-13T18:44:16.076Z,45.35
2018-05-13T18:46:44.887Z,46.68
2018-05-13T18:49:13.713Z,46.42
2018-05-13T18:51:42.637Z,46.95
2018-05-13T18:54:11.869Z,47.40
2018-05-13T18:56:40.839Z,48.86
2018-05-13T18:59:10.102Z,50.10
2018-05-13T19:01:39.232Z,50.58
2018-05-13T19:04:08.294Z,51.81
2018-05-13T19:06:37.076Z,52.62
2018-05-13T19:09:05.960Z,52.06
2018-05-13T19:11:34.720Z,52.44
2018-05-13T19:14:03.621Z,51.89
2018-05-13T19:16:32.556Z,50.48
2018-05-13T19:19:01.485Z,49.35
2018-05-13T19:21:30.221Z,49.23
2018-05-13T19:23:59.081Z,47.88
2018-05-13T19:26:27.871Z,46.49
2018-05-13T19:28:56.676Z,46.45
2018-05-13T19:31:25.468Z,46.32
2018-05-13T19:33:54.272Z,47.04
2018-05-13T19:36:23.262Z,48.58
2018-05-13T19:38:52.239Z,50.19
2018-05-13T19:41:21.368Z,50.60
2018-05-13T19:43:50.256Z,49.54
2018-05-13T19:46:19.274Z,51.26
2018-05-13T19:48:48.111Z,53.02
2018-05-13T19:51:17.190Z,53.48
2018-05-13T19:53:46.187Z,52.44
2018-05-13T19:56:15.024Z,53.44
2018-05-13T19:58:44.213Z,52.55
2018-05-13T20:01:13.358Z,53.75
2018-05-13T20:03:42.353Z,54.00
2018-05-13T20:06:11.276Z,54.84
2018-05-13T20:08:40.095Z,54.85
2018-05-13T20:11:09.080Z,55.21
2018-05-13T20:13:37.913Z,55.58
2018-05-13T20:16:06.726Z,56.02
2018-05-13T20:18:35.822Z,54.91
2018-05-13T20:21:04.917Z,54.51
2018-05-13T20:23:34.043Z,55.83
2018-05-13T20:26:02.850Z,56.89
2018-05-13T20:28:31.852Z,56.70
2018-05-13T20:31:00.710Z,56.74
2018-05-13T20:33:29.596Z,57.13
2018-05-13T20:35:58.827Z,57.62
2018-05-13T20:38:27.734Z,57.37
2018-05-13T20:40:56.748Z,57.17
2018-05-13T20:43:25.729Z,56.22
2018-05-13T20:45:54.629Z,56.95
2018-05-13T20:48:23.590Z,55.95
2018-05-13T20:50:52.723Z,55.80
2018-05-13T20:53:21.488Z,55.45
2018-05-13T20:55:50.408Z,55.90
2018-05-13T20:58:19.367Z,55.51
2018-05-13T21:00:48.324Z,55.24
2018-05-13T21:03:17.222Z,55.61
2018-05-13T21:05:46.208Z,53.28
2018-05-13T21:08:15.231Z,53.94
2018-05-13T21:10:44.048Z,53.78
2018-05-13T21:13:12.953Z,53.56
2018-05-13T21:15:41.839Z,52.79
2018-05-13T21:18:11.453Z,53.09
2018-05-13T21:20:40.204Z,54.87
2018-05-13T21:23:09.312Z,54.20
2018-05-13T21:25:38.304Z,56.06
2018-05-13T21:28:07.149Z,56.52
2018-05-13T21:30:36.100Z,54.34
2018-05-13T21:33:05.414Z,55.09
2018-05-13T21:35:34.530Z,56.02
2018-05-13T21:38:03.568Z,56.73
2018-05-13T21:40:32.536Z,57.23
2018-05-13T21:43:01.464Z,56.97
2018-05-13T21:45:30.591Z,56.65
2018-05-13T21:47:59.540Z,57.44
2018-05-13T21:50:28.474Z,58.16
2018-05-13T21:52:57.299Z,57.82
2018-05-13T21:55:26.250Z,58.12
2018-05-13T21:57:55.316Z,58.66
2018-05-13T22:00:24.289Z,58.94
2018-05-13T22:02:53.069Z,58.98
2018-05-13T22:05:21.898Z,59.13
2018-05-13T22:07:50.885Z,59.78
2018-05-13T22:10:19.824Z,60.60
2018-05-13T22:12:48.913Z,60.97
2018-05-13T22:15:17.736Z,61.12
2018-05-13T22:17:46.664Z,61.11
2018-05-13T22:20:15.560Z,62.13
2018-05-13T22:22:44.697Z,62.38
2018-05-13T22:25:13.560Z,61.49
2018-05-13T22:27:42.486Z,62.45
2018-05-13T22:30:11.643Z,62.82
2018-05-13T22:32:40.575Z,62.62
2018-05-13T22:35:09.504Z,62.65
2018-05-13T22:37:38.604Z,58.63
2018-05-13T22:40:07.602Z,56.99
2018-05-13T22:42:36.529Z,54.55
2018-05-13T22:45:05.586Z,54.23
2018-05-13T22:47:34.481Z,57.26
2018-05-13T22:50:03.632Z,58.58
2018-05-13T22:52:32.978Z,58.82
2018-05-13T22:55:01.760Z,58.11
2018-05-13T22:57:30.907Z,58.64
2018-05-13T22:59:59.700Z,59.85
2018-05-13T23:02:28.537Z,60.73
2018-05-13T23:04:57.512Z,61.56
2018-05-13T23:07:26.464Z,61.38
2018-05-13T23:09:55.714Z,61.98
2018-05-13T23:12:24.994Z,61.88
2018-05-13T23:14:53.966Z,62.53
2018-05-13T23:17:23.111Z,63.21
2018-05-13T23:19:52.584Z,60.11
2018-05-13T23:22:32.928Z,58.62
2018-05-13T23:25:02.433Z,60.69
2018-05-13T23:27:32.988Z,60.43
2018-05-13T23:30:02.571Z,59.96
2018-05-13T23:32:31.564Z,58.83
2018-05-13T23:35:00.763Z,58.89
2018-05-13T23:37:29.797Z,60.34
2018-05-13T23:39:58.894Z,59.82
2018-05-13T23:42:28.105Z,59.76
2018-05-13T23:44:57.107Z,60.34
2018-05-13T23:47:26.214Z,60.85
2018-05-13T23:49:55.272Z,60.63
2018-05-13T23:52:24.329Z,60.39
2018-05-13T23:54:53.500Z,60.38
2018-05-13T23:57:22.665Z,60.64
2018-05-13T23:59:52.198Z,61.36
